createdAt,value
2022-10-17T00:02:11.150Z,6.18
2022-10-17T00:04:37.962Z,6.30
2022-10-17T00:07:05.209Z,5.97
2022-10-17T00:09:32.292Z,6.68
2022-10-17T00:12:05.873Z,6.95
2022-10-17T00:17:25.388Z,6.63
2022-10-17T00:20:03.390Z,6.10
2022-10-17T00:22:33.963Z,6.47
2022-10-17T00:25:02.198Z,6.28
2022-10-17T00:27:29.913Z,6.05
2022-10-17T00:29:57.180Z,6.03
2022-10-17T00:32:24.175Z,6.25
2022-10-17T00:34:51.161Z,6.65
2022-10-17T00:37:18.118Z,6.65
2022-10-17T00:39:45.229Z,6.63
2022-10-17T00:42:15.597Z,6.85
2022-10-17T00:47:29.924Z,6.53
2022-10-17T00:49:57.279Z,7.13
2022-10-17T00:52:31.991Z,7.43
2022-10-17T00:55:09.590Z,7.25
2022-10-17T00:57:37.369Z,7.85
2022-10-17T01:00:07.649Z,8.20
2022-10-17T01:02:37.156Z,7.63
2022-10-17T01:05:05.573Z,7.95
2022-10-17T01:07:36.349Z,7.97
2022-10-17T01:10:05.535Z,8.52
2022-10-17T01:12:37.748Z,8.13
2022-10-17T01:15:37.001Z,7.88
2022-10-17T01:18:22.632Z,7.85
2022-10-17T01:21:27.145Z,7.80
2022-10-17T01:24:10.587Z,8.80
2022-10-17T01:27:02.596Z,8.85
2022-10-17T01:30:11.123Z,9.88
2022-10-17T01:35:43.017Z,10.60
2022-10-17T01:38:18.946Z,10.82
2022-10-17T01:41:24.913Z,10.13
2022-10-17T01:44:01.400Z,10.00
2022-10-17T01:46:36.745Z,10.07
2022-10-17T01:49:06.891Z,11.23
2022-10-17T01:51:54.281Z,10.77
2022-10-17T01:54:37.632Z,11.13
2022-10-17T01:59:42.917Z,11.75
2022-10-17T02:02:11.892Z,11.80
2022-10-17T02:04:39.022Z,12.27
2022-10-17T02:07:13.120Z,12.15
2022-10-17T02:09:40.585Z,13.50
2022-10-17T02:12:27.758Z,13.82
2022-10-17T02:15:14.055Z,12.75
2022-10-17T02:18:05.760Z,14.23
2022-10-17T02:20:47.821Z,14.70
2022-10-17T02:23:28.071Z,15.05
2022-10-17T02:26:13.187Z,14.52
2022-10-17T02:28:57.963Z,14.23
2022-10-17T02:31:31.155Z,16.10
2022-10-17T02:34:15.413Z,13.30
2022-10-17T02:36:52.667Z,14.23
2022-10-17T02:39:25.071Z,13.35
2022-10-17T02:41:57.287Z,13.18
2022-10-17T02:44:26.605Z,14.73
2022-10-17T02:47:02.196Z,14.77
2022-10-17T02:49:34.747Z,13.75
2022-10-17T02:52:10.391Z,15.07
2022-10-17T02:54:55.458Z,15.15
2022-10-17T02:57:40.396Z,14.93
2022-10-17T03:00:11.221Z,15.40
2022-10-17T03:02:45.067Z,15.65
2022-10-17T03:05:17.587Z,16.15
2022-10-17T03:07:44.794Z,15.02
2022-10-17T03:10:14.708Z,16.88
2022-10-17T03:12:41.563Z,14.90
2022-10-17T03:15:09.025Z,14.65
2022-10-17T03:17:36.191Z,15.30
2022-10-17T03:20:04.386Z,15.27
2022-10-17T03:22:32.361Z,15.02
2022-10-17T03:24:59.448Z,13.38
2022-10-17T03:27:26.840Z,13.70
2022-10-17T03:29:53.799Z,13.90
2022-10-17T03:32:20.616Z,14.18
2022-10-17T03:34:47.550Z,14.13
2022-10-17T03:37:14.590Z,14.90
2022-10-17T03:39:44.004Z,13.88
2022-10-17T03:42:11.292Z,13.98
2022-10-17T03:44:41.098Z,13.07
2022-10-17T03:47:09.337Z,13.82
2022-10-17T03:49:39.225Z,12.48
2022-10-17T03:52:06.481Z,12.00
2022-10-17T03:54:33.197Z,12.80
2022-10-17T03:57:00.160Z,12.07
2022-10-17T03:59:29.298Z,11.57
2022-10-17T04:01:59.406Z,11.07
2022-10-17T04:04:32.375Z,10.70
2022-10-17T04:06:59.007Z,11.20
2022-10-17T04:09:26.121Z,10.95
2022-10-17T04:11:56.171Z,10.27
2022-10-17T04:14:23.207Z,9.75
2022-10-17T04:16:50.184Z,10.25
2022-10-17T04:19:17.182Z,10.05
2022-10-17T04:21:44.009Z,9.43
2022-10-17T04:24:12.469Z,9.30
2022-10-17T04:26:39.630Z,9.52
2022-10-17T04:29:09.371Z,8.82
2022-10-17T04:31:36.437Z,9.25
2022-10-17T04:34:03.470Z,9.52
2022-10-17T04:36:33.092Z,9.27
2022-10-17T04:39:06.091Z,8.82
2022-10-17T04:41:33.285Z,7.78
2022-10-17T04:44:00.403Z,9.40
2022-10-17T04:46:27.192Z,8.05
2022-10-17T04:48:54.503Z,8.40
2022-10-17T04:51:24.430Z,8.02
2022-10-17T04:53:53.520Z,8.43
2022-10-17T04:56:22.732Z,8.48
2022-10-17T04:58:52.778Z,8.18
2022-10-17T05:01:23.397Z,8.43
2022-10-17T05:03:50.267Z,9.32
2022-10-17T05:06:20.838Z,8.02
2022-10-17T05:08:48.232Z,9.48
2022-10-17T05:11:28.396Z,8.02
2022-10-17T05:14:02.440Z,8.40
2022-10-17T05:16:32.762Z,7.70
2022-10-17T05:19:00.087Z,8.60
2022-10-17T05:21:28.477Z,7.63
2022-10-17T05:23:58.428Z,7.95
2022-10-17T05:26:26.342Z,8.20
2022-10-17T05:28:53.251Z,7.72
2022-10-17T05:31:25.870Z,8.88
2022-10-17T05:33:53.011Z,7.47
2022-10-17T05:36:19.703Z,8.35
2022-10-17T05:38:51.408Z,7.93
2022-10-17T05:41:22.408Z,7.63
2022-10-17T05:43:50.428Z,7.35
2022-10-17T05:46:17.632Z,7.47
2022-10-17T05:48:44.627Z,7.78
2022-10-17T05:51:12.033Z,7.85
2022-10-17T05:53:40.624Z,8.00
2022-10-17T05:56:09.722Z,8.00
2022-10-17T05:58:49.812Z,7.90
2022-10-17T06:01:18.156Z,7.30
2022-10-17T06:03:45.008Z,7.43
2022-10-17T06:06:13.861Z,7.30
2022-10-17T06:08:40.774Z,8.30
2022-10-17T06:11:10.029Z,7.05
2022-10-17T06:13:38.935Z,6.85
2022-10-17T06:16:09.582Z,7.60
2022-10-17T06:18:36.763Z,7.45
2022-10-17T06:21:09.669Z,6.70
2022-10-17T06:23:48.389Z,6.78
2022-10-17T06:26:18.955Z,7.22
2022-10-17T06:28:45.862Z,7.30
2022-10-17T06:31:17.843Z,7.07
2022-10-17T06:33:44.843Z,7.13
2022-10-17T06:36:13.828Z,6.90
2022-10-17T06:38:41.153Z,6.82
2022-10-17T06:41:13.438Z,6.80
2022-10-17T06:43:43.464Z,6.90
2022-10-17T06:46:10.156Z,6.68
2022-10-17T06:48:39.558Z,7.78
2022-10-17T06:51:07.526Z,6.28
2022-10-17T06:53:35.096Z,6.50
2022-10-17T06:56:03.167Z,6.43
2022-10-17T06:58:47.360Z,7.00
2022-10-17T07:01:14.222Z,6.47
2022-10-17T07:03:41.612Z,6.38
2022-10-17T07:06:08.878Z,5.80
2022-10-17T07:08:35.983Z,6.25
2022-10-17T07:11:14.441Z,5.68
2022-10-17T07:13:41.732Z,5.47
2022-10-17T07:16:11.847Z,6.07
2022-10-17T07:18:38.823Z,6.25
2022-10-17T07:21:06.691Z,5.97
2022-10-17T07:23:39.175Z,6.47
2022-10-17T07:26:09.493Z,6.72
2022-10-17T07:28:47.098Z,7.75
2022-10-17T07:31:23.118Z,7.10
2022-10-17T07:33:51.282Z,7.50
2022-10-17T07:36:19.072Z,7.15
2022-10-17T07:38:45.854Z,7.70
2022-10-17T07:41:17.864Z,6.95
2022-10-17T07:43:48.033Z,7.32
2022-10-17T07:46:14.813Z,7.22
2022-10-17T07:48:41.913Z,7.32
2022-10-17T07:51:20.289Z,7.68
2022-10-17T07:53:48.870Z,7.50
2022-10-17T07:56:18.600Z,7.07
2022-10-17T07:58:45.631Z,7.32
2022-10-17T08:01:15.820Z,7.25
2022-10-17T08:03:49.024Z,7.32
2022-10-17T08:06:18.756Z,7.93
2022-10-17T08:08:48.955Z,7.45
2022-10-17T08:11:16.266Z,6.93
2022-10-17T08:13:44.084Z,7.22
2022-10-17T08:16:13.402Z,7.82
2022-10-17T08:18:42.088Z,7.00
2022-10-17T08:21:11.562Z,7.38
2022-10-17T08:23:38.716Z,6.90
2022-10-17T08:26:10.893Z,7.85
2022-10-17T08:28:39.432Z,7.03
2022-10-17T08:31:21.545Z,6.63
2022-10-17T08:33:49.952Z,6.65
2022-10-17T08:36:21.484Z,6.90
2022-10-17T08:38:54.496Z,6.68
2022-10-17T08:41:54.610Z,5.75
2022-10-17T08:44:55.874Z,6.05
2022-10-17T08:47:39.877Z,6.00
2022-10-17T08:50:25.958Z,6.10
2022-10-17T08:52:58.741Z,6.88
2022-10-17T08:55:41.477Z,6.35
2022-10-17T08:58:18.959Z,6.63
2022-10-17T09:01:05.349Z,6.43
2022-10-17T09:03:33.772Z,9.82
2022-10-17T09:06:24.494Z,7.75
2022-10-17T09:09:06.363Z,6.72
2022-10-17T09:11:35.973Z,6.85
2022-10-17T09:14:31.340Z,6.38
2022-10-17T09:17:07.017Z,7.13
2022-10-17T09:19:42.489Z,7.60
2022-10-17T09:22:12.140Z,8.43
2022-10-17T09:25:01.957Z,7.95
2022-10-17T09:27:42.832Z,7.85
2022-10-17T09:30:44.561Z,7.65
2022-10-17T09:33:34.306Z,52.35
2022-10-17T09:36:05.616Z,7.15
2022-10-17T09:38:42.128Z,10.43
2022-10-17T09:41:47.547Z,12.68
2022-10-17T09:44:18.604Z,10.18
2022-10-17T09:46:56.741Z,7.15
2022-10-17T09:49:32.782Z,5.38
2022-10-17T09:52:08.412Z,5.90
2022-10-17T09:54:53.361Z,5.70
2022-10-17T09:57:22.426Z,5.63
2022-10-17T10:00:32.581Z,5.35
2022-10-17T10:03:14.009Z,5.65
2022-10-17T10:05:45.303Z,5.53
2022-10-17T10:08:39.615Z,6.05
2022-10-17T10:11:19.742Z,5.43
2022-10-17T10:13:49.982Z,5.53
2022-10-17T10:19:38.519Z,5.60
2022-10-17T10:22:23.837Z,5.88
2022-10-17T10:25:30.558Z,6.50
2022-10-17T10:28:01.740Z,5.80
2022-10-17T10:30:34.879Z,5.78
2022-10-17T10:33:06.814Z,6.65
2022-10-17T10:35:43.758Z,6.85
2022-10-17T10:38:18.793Z,6.15
2022-10-17T10:40:55.096Z,6.53
2022-10-17T10:43:44.804Z,7.00
2022-10-17T10:46:26.054Z,7.10
2022-10-17T10:49:00.253Z,7.68
2022-10-17T10:51:27.282Z,7.18
2022-10-17T10:54:02.655Z,7.50
2022-10-17T10:56:40.874Z,8.25
2022-10-17T10:59:19.636Z,8.32
2022-10-17T11:02:28.913Z,7.55
2022-10-17T11:05:15.080Z,8.48
2022-10-17T11:08:21.295Z,8.32
2022-10-17T11:11:21.841Z,8.68
2022-10-17T11:14:02.913Z,8.20
2022-10-17T11:16:52.009Z,8.05
2022-10-17T11:19:25.637Z,8.15
2022-10-17T11:22:28.932Z,8.82
2022-10-17T11:25:34.454Z,9.00
2022-10-17T11:28:23.289Z,8.52
2022-10-17T11:31:09.794Z,9.35
2022-10-17T11:33:59.485Z,9.25
2022-10-17T11:36:32.728Z,9.52
2022-10-17T11:39:09.284Z,9.32
2022-10-17T11:41:53.300Z,9.73
2022-10-17T11:44:29.737Z,9.05
2022-10-17T11:47:49.531Z,9.73
2022-10-17T11:53:25.158Z,9.45
2022-10-17T11:55:57.140Z,9.20
2022-10-17T11:58:49.207Z,9.80
2022-10-17T12:01:38.074Z,9.05
2022-10-17T12:04:29.472Z,8.85
2022-10-17T12:07:14.627Z,8.90
2022-10-17T12:09:57.770Z,9.07
2022-10-17T12:12:34.697Z,8.98
2022-10-17T12:15:16.250Z,8.65
2022-10-17T12:17:57.455Z,9.00
2022-10-17T12:20:24.438Z,9.70
2022-10-17T12:23:11.109Z,10.77
2022-10-17T12:25:49.776Z,9.52
2022-10-17T12:28:25.032Z,10.30
2022-10-17T12:30:56.906Z,10.20
2022-10-17T12:33:57.625Z,10.13
2022-10-17T12:36:27.775Z,9.85
2022-10-17T12:39:03.544Z,10.23
2022-10-17T12:41:48.828Z,10.50
2022-10-17T12:44:16.733Z,11.45
2022-10-17T12:46:51.296Z,10.85
2022-10-17T12:49:44.202Z,10.27
2022-10-17T12:52:17.088Z,11.35
2022-10-17T12:55:12.049Z,9.98
2022-10-17T12:57:42.878Z,9.75
2022-10-17T13:00:27.898Z,10.82
2022-10-17T13:02:57.557Z,10.20
2022-10-17T13:05:29.932Z,11.20
2022-10-17T13:08:00.005Z,11.30
2022-10-17T13:10:31.282Z,10.85
2022-10-17T13:13:28.078Z,11.50
2022-10-17T13:18:56.809Z,12.32
2022-10-17T13:21:41.856Z,12.50
2022-10-17T13:24:43.061Z,12.75
2022-10-17T13:27:34.265Z,12.48
2022-10-17T13:30:26.764Z,13.13
2022-10-17T13:33:04.746Z,13.05
2022-10-17T13:35:58.989Z,12.65
2022-10-17T13:38:29.019Z,12.90
2022-10-17T13:41:01.983Z,11.75
2022-10-17T13:43:38.888Z,13.57
2022-10-17T13:46:32.468Z,12.98
2022-10-17T13:48:54.207Z,12.43
2022-10-17T13:51:21.269Z,11.77
2022-10-17T13:53:50.786Z,11.77
2022-10-17T13:56:30.223Z,11.25
2022-10-17T13:59:00.349Z,10.95
2022-10-17T14:01:29.528Z,11.10
2022-10-17T14:04:20.142Z,10.00
2022-10-17T14:06:52.996Z,9.40
2022-10-17T14:09:43.392Z,10.85
2022-10-17T14:12:19.199Z,9.95
2022-10-17T14:15:10.769Z,9.80
2022-10-17T14:17:39.656Z,8.68
2022-10-17T14:20:57.527Z,9.48
2022-10-17T14:23:22.897Z,9.50
2022-10-17T14:26:08.669Z,8.00
2022-10-17T14:28:35.794Z,8.18
2022-10-17T14:31:20.363Z,8.07
2022-10-17T14:33:50.984Z,7.95
2022-10-17T14:36:19.911Z,8.40
2022-10-17T14:38:49.793Z,8.65
2022-10-17T14:41:43.328Z,7.65
2022-10-17T14:46:50.466Z,6.63
2022-10-17T14:49:25.970Z,7.82
2022-10-17T14:52:14.922Z,7.57
2022-10-17T14:54:56.227Z,7.25
2022-10-17T15:00:24.575Z,7.93
2022-10-17T15:02:53.642Z,8.02
2022-10-17T15:05:23.108Z,8.63
2022-10-17T15:07:49.932Z,9.10
2022-10-17T15:10:26.677Z,9.30
2022-10-17T15:12:59.315Z,8.70
2022-10-17T15:15:38.296Z,8.98
2022-10-17T15:18:06.195Z,8.73
2022-10-17T15:20:34.084Z,8.57
2022-10-17T15:23:05.596Z,8.65
2022-10-17T15:25:32.902Z,9.88
2022-10-17T15:28:03.010Z,12.00
2022-10-17T15:30:36.119Z,9.95
2022-10-17T15:33:02.861Z,10.98
2022-10-17T15:35:29.973Z,10.00
2022-10-17T15:37:57.022Z,11.07
2022-10-17T15:40:29.293Z,9.60
2022-10-17T15:42:56.687Z,9.70
2022-10-17T15:45:24.330Z,8.90
2022-10-17T15:48:02.081Z,10.20
2022-10-17T15:50:30.719Z,9.70
2022-10-17T15:52:57.439Z,9.23
2022-10-17T15:55:24.485Z,9.70
2022-10-17T15:57:51.488Z,10.20
2022-10-17T16:00:21.242Z,9.95
2022-10-17T16:02:49.466Z,9.85
2022-10-17T16:05:28.477Z,10.65
2022-10-17T16:07:57.635Z,10.75
2022-10-17T16:10:26.094Z,11.15
2022-10-17T16:12:53.125Z,12.55
2022-10-17T16:15:23.588Z,11.45
2022-10-17T16:17:51.326Z,12.55
2022-10-17T16:20:19.740Z,11.57
2022-10-17T16:22:46.879Z,12.90
2022-10-17T16:25:19.949Z,11.63
2022-10-17T16:27:48.390Z,12.73
2022-10-17T16:30:15.574Z,12.48
2022-10-17T16:32:42.742Z,12.32
2022-10-17T16:35:14.792Z,13.80
2022-10-17T16:37:42.114Z,13.70
2022-10-17T16:40:09.402Z,15.68
2022-10-17T16:42:36.175Z,18.00
2022-10-17T16:45:03.017Z,18.67
2022-10-17T16:47:29.769Z,16.10
2022-10-17T16:49:56.370Z,13.48
2022-10-17T16:52:23.098Z,13.90
2022-10-17T16:54:49.736Z,13.18
2022-10-17T16:57:16.576Z,13.13
2022-10-17T16:59:43.194Z,18.52
2022-10-17T17:02:12.010Z,13.98
2022-10-17T17:04:38.889Z,15.05
2022-10-17T17:07:05.627Z,13.85
2022-10-17T17:09:32.563Z,13.70
2022-10-17T17:11:59.600Z,12.68
2022-10-17T17:14:26.237Z,12.07
2022-10-17T17:16:53.095Z,13.48
2022-10-17T17:19:20.462Z,13.45
2022-10-17T17:21:53.034Z,12.25
2022-10-17T17:24:23.468Z,11.73
2022-10-17T17:26:54.636Z,11.20
2022-10-17T17:29:21.909Z,11.10
2022-10-17T17:31:48.501Z,11.55
2022-10-17T17:34:18.078Z,11.48
2022-10-17T17:36:45.352Z,12.05
2022-10-17T17:39:13.877Z,10.95
2022-10-17T17:41:41.827Z,11.57
2022-10-17T17:44:12.567Z,10.35
2022-10-17T17:46:43.577Z,11.68
2022-10-17T17:49:13.985Z,11.55
2022-10-17T17:51:59.512Z,12.40
2022-10-17T17:54:26.146Z,11.57
2022-10-17T17:56:52.687Z,12.00
2022-10-17T17:59:19.390Z,12.07
2022-10-17T18:01:46.059Z,13.45
2022-10-17T18:04:13.191Z,13.48
2022-10-17T18:06:40.321Z,12.85
2022-10-17T18:09:07.776Z,12.88
2022-10-17T18:11:35.625Z,21.67
2022-10-17T18:14:05.650Z,12.75
2022-10-17T18:16:34.445Z,18.10
2022-10-17T18:19:06.724Z,15.52
2022-10-17T18:21:34.997Z,13.67
2022-10-17T18:24:07.849Z,14.93
2022-10-17T18:26:35.904Z,15.07
2022-10-17T18:29:03.939Z,17.60
2022-10-17T18:31:36.344Z,18.35
2022-10-17T18:34:04.952Z,16.92
2022-10-17T18:36:33.820Z,16.02
2022-10-17T18:39:01.938Z,21.70
2022-10-17T18:41:29.345Z,18.42
2022-10-17T18:43:56.895Z,17.60
2022-10-17T18:46:26.811Z,24.98
2022-10-17T18:49:03.596Z,24.30
2022-10-17T18:51:30.934Z,17.98
2022-10-17T18:53:58.868Z,17.67
2022-10-17T18:56:26.352Z,18.98
2022-10-17T18:58:53.790Z,19.60
2022-10-17T19:01:23.687Z,18.65
2022-10-17T19:03:53.352Z,15.25
2022-10-17T19:06:22.485Z,15.35
2022-10-17T19:08:49.357Z,15.40
2022-10-17T19:11:19.137Z,16.25
2022-10-17T19:13:47.288Z,14.80
2022-10-17T19:16:18.518Z,15.07
2022-10-17T19:18:50.905Z,13.85
2022-10-17T19:21:21.701Z,15.05
2022-10-17T19:23:55.038Z,14.07
2022-10-17T19:26:22.993Z,13.30
2022-10-17T19:28:57.154Z,13.15
2022-10-17T19:31:27.093Z,13.27
2022-10-17T19:33:55.473Z,12.95
2022-10-17T19:36:27.592Z,12.30
2022-10-17T19:38:58.327Z,11.73
2022-10-17T19:41:25.942Z,11.38
2022-10-17T19:43:53.314Z,12.68
2022-10-17T19:46:22.407Z,12.27
2022-10-17T19:48:50.087Z,11.20
2022-10-17T19:51:18.610Z,11.57
2022-10-17T19:53:46.397Z,11.27
2022-10-17T19:56:13.959Z,10.13
2022-10-17T19:58:46.693Z,9.27
2022-10-17T20:01:19.232Z,9.95
2022-10-17T20:03:46.695Z,9.70
2022-10-17T20:06:14.335Z,9.40
2022-10-17T20:08:48.655Z,9.60
2022-10-17T20:11:19.174Z,9.20
2022-10-17T20:13:46.658Z,9.90
2022-10-17T20:16:17.451Z,8.93
2022-10-17T20:18:47.536Z,9.00
2022-10-17T20:21:17.198Z,8.55
2022-10-17T20:23:45.595Z,8.93
2022-10-17T20:26:26.394Z,8.02
2022-10-17T20:29:08.857Z,8.23
2022-10-17T20:31:35.836Z,8.40
2022-10-17T20:34:02.412Z,7.95
2022-10-17T20:36:28.971Z,7.63
2022-10-17T20:38:57.106Z,8.70
2022-10-17T20:41:24.682Z,8.82
2022-10-17T20:43:52.578Z,7.93
2022-10-17T20:46:29.388Z,7.82
2022-10-17T20:49:02.094Z,8.70
2022-10-17T20:51:28.605Z,8.95
2022-10-17T20:56:24.680Z,8.77
2022-10-17T20:59:03.402Z,8.05
2022-10-17T21:01:31.755Z,8.02
2022-10-17T21:04:06.061Z,7.82
2022-10-17T21:06:42.695Z,7.45
2022-10-17T21:09:09.706Z,8.00
2022-10-17T21:11:36.369Z,7.90
2022-10-17T21:14:06.287Z,7.15
2022-10-17T21:16:36.227Z,8.18
2022-10-17T21:19:04.345Z,8.27
2022-10-17T21:21:33.761Z,8.75
2022-10-17T21:24:03.170Z,7.78
2022-10-17T21:26:32.489Z,7.82
2022-10-17T21:29:04.718Z,7.53
2022-10-17T21:31:36.282Z,7.95
2022-10-17T21:34:14.009Z,8.32
2022-10-17T21:36:41.244Z,8.60
2022-10-17T21:41:34.671Z,8.02
2022-10-17T21:44:05.291Z,8.40
2022-10-17T21:46:33.001Z,8.10
2022-10-17T21:49:00.623Z,7.53
2022-10-17T21:51:27.881Z,7.32
2022-10-17T21:53:56.744Z,7.00
2022-10-17T21:56:31.177Z,7.68
2022-10-17T21:58:59.250Z,7.35
2022-10-17T22:01:31.753Z,7.55
2022-10-17T22:04:01.010Z,7.33
2022-10-17T22:06:39.602Z,7.25
2022-10-17T22:09:11.449Z,7.53
2022-10-17T22:11:38.057Z,8.30
2022-10-17T22:14:12.189Z,7.57
2022-10-17T22:16:39.613Z,7.65
2022-10-17T22:19:07.654Z,7.47
2022-10-17T22:21:36.462Z,7.57
2022-10-17T22:24:06.049Z,7.55
2022-10-17T22:26:37.698Z,7.43
2022-10-17T22:29:05.979Z,7.03
2022-10-17T22:31:33.175Z,7.40
2022-10-17T22:33:59.769Z,7.60
2022-10-17T22:36:26.395Z,8.15
2022-10-17T22:38:53.073Z,7.43
2022-10-17T22:41:19.822Z,7.82
2022-10-17T22:43:46.534Z,8.07
2022-10-17T22:46:14.659Z,7.90
2022-10-17T22:48:41.700Z,8.18
2022-10-17T22:51:09.023Z,8.30
2022-10-17T22:53:37.485Z,8.20
2022-10-17T22:56:08.156Z,7.97
2022-10-17T22:58:35.928Z,8.32
2022-10-17T23:01:03.744Z,8.15
2022-10-17T23:03:31.816Z,8.35
2022-10-17T23:05:58.812Z,8.95
2022-10-17T23:08:26.944Z,8.32
2022-10-17T23:10:54.010Z,7.70
2022-10-17T23:13:21.953Z,8.20
2022-10-17T23:15:56.770Z,7.70
2022-10-17T23:18:25.094Z,8.68
2022-10-17T23:20:51.996Z,8.30
2022-10-17T23:23:18.866Z,8.73
2022-10-17T23:25:45.955Z,9.18
2022-10-17T23:28:13.243Z,8.93
2022-10-17T23:30:40.461Z,8.80
2022-10-17T23:33:07.708Z,8.40
2022-10-17T23:35:35.404Z,9.00
2022-10-17T23:38:02.566Z,8.25
2022-10-17T23:40:29.821Z,8.00
2022-10-17T23:42:56.501Z,8.23
2022-10-17T23:45:23.151Z,8.70
2022-10-17T23:47:49.801Z,8.50
2022-10-17T23:50:16.599Z,7.97
2022-10-17T23:52:43.587Z,9.15
2022-10-17T23:55:10.579Z,9.68
2022-10-17T23:57:37.199Z,8.50
